createdAt,value
2022-09-04T00:01:44.966Z,16.38
2022-09-04T00:04:17.848Z,16.32
2022-09-04T00:06:55.493Z,16.30
2022-09-04T00:09:51.600Z,16.28
2022-09-04T00:12:26.774Z,16.29
2022-09-04T00:15:13.756Z,16.31
2022-09-04T00:17:49.374Z,16.32
2022-09-04T00:20:25.117Z,16.35
2022-09-04T00:22:59.286Z,16.35
2022-09-04T00:25:33.410Z,16.35
2022-09-04T00:28:09.142Z,16.35
2022-09-04T00:30:37.268Z,16.33
2022-09-04T00:33:09.680Z,16.34
2022-09-04T00:35:44.678Z,16.34
2022-09-04T00:38:14.200Z,16.37
2022-09-04T00:40:58.665Z,16.35
2022-09-04T00:43:33.465Z,16.34
2022-09-04T00:46:18.353Z,16.38
2022-09-04T00:49:05.135Z,16.41
2022-09-04T00:51:49.446Z,16.43
2022-09-04T00:54:34.665Z,16.44
2022-09-04T00:57:19.336Z,16.42
2022-09-04T00:59:54.885Z,16.39
2022-09-04T01:02:39.993Z,16.40
2022-09-04T01:05:20.877Z,16.40
2022-09-04T01:07:56.692Z,16.40
2022-09-04T01:10:39.522Z,16.43
2022-09-04T01:13:05.979Z,16.44
2022-09-04T01:15:49.273Z,16.43
2022-09-04T01:18:24.221Z,16.43
2022-09-04T01:21:06.453Z,16.45
2022-09-04T01:23:35.962Z,16.46
2022-09-04T01:26:13.763Z,16.46
2022-09-04T01:28:46.312Z,16.46
2022-09-04T01:31:21.298Z,16.49
2022-09-04T01:34:14.267Z,16.49
2022-09-04T01:36:49.365Z,16.51
2022-09-04T01:39:19.013Z,16.54
2022-09-04T01:41:45.526Z,16.56
2022-09-04T01:44:12.836Z,16.57
2022-09-04T01:47:02.076Z,16.62
2022-09-04T01:49:28.550Z,16.65
2022-09-04T01:52:10.062Z,16.66
2022-09-04T01:54:37.823Z,16.71
2022-09-04T01:57:10.662Z,16.73
2022-09-04T01:59:53.853Z,16.76
2022-09-04T02:02:34.647Z,16.77
2022-09-04T02:05:20.004Z,16.75
2022-09-04T02:07:54.390Z,16.74
2022-09-04T02:10:23.572Z,16.76
2022-09-04T02:13:07.332Z,16.75
2022-09-04T02:15:43.146Z,16.76
2022-09-04T02:18:15.614Z,16.77
2022-09-04T02:20:51.105Z,16.75
2022-09-04T02:23:37.870Z,16.73
2022-09-04T02:26:17.719Z,16.74
2022-09-04T02:28:53.396Z,16.75
2022-09-04T02:31:19.948Z,16.75
2022-09-04T02:33:55.539Z,16.75
2022-09-04T02:36:30.008Z,16.76
2022-09-04T02:39:08.449Z,16.77
2022-09-04T02:41:54.536Z,16.80
2022-09-04T02:44:39.572Z,16.83
2022-09-04T02:47:12.440Z,16.84
2022-09-04T02:49:58.687Z,16.84
2022-09-04T02:52:43.841Z,16.84
2022-09-04T02:55:30.760Z,16.85
2022-09-04T02:58:23.733Z,16.84
2022-09-04T03:00:55.258Z,16.83
2022-09-04T03:03:27.894Z,16.84
2022-09-04T03:06:22.683Z,16.81
2022-09-04T03:08:55.403Z,16.77
2022-09-04T03:11:24.701Z,16.76
2022-09-04T03:14:05.107Z,16.75
2022-09-04T03:16:37.390Z,16.73
2022-09-04T03:19:08.939Z,16.71
2022-09-04T03:21:46.011Z,16.70
2022-09-04T03:24:31.071Z,16.70
2022-09-04T03:27:06.196Z,16.68
2022-09-04T03:29:41.523Z,16.66
2022-09-04T03:32:17.939Z,16.65
2022-09-04T03:35:04.676Z,16.62
2022-09-04T03:37:37.540Z,16.57
2022-09-04T03:40:16.048Z,16.53
2022-09-04T03:43:01.082Z,16.49
2022-09-04T03:45:33.316Z,16.42
2022-09-04T03:48:02.634Z,16.38
2022-09-04T03:50:38.123Z,16.35
2022-09-04T03:53:05.914Z,16.32
2022-09-04T03:55:41.722Z,16.31
2022-09-04T03:58:11.248Z,16.33
2022-09-04T04:00:49.962Z,16.34
2022-09-04T04:03:19.626Z,16.34
2022-09-04T04:06:01.467Z,16.32
2022-09-04T04:08:30.768Z,16.31
2022-09-04T04:11:09.557Z,16.28
2022-09-04T04:13:41.108Z,16.25
2022-09-04T04:16:24.713Z,16.27
2022-09-04T04:19:07.055Z,16.27
2022-09-04T04:21:57.368Z,16.25
2022-09-04T04:24:28.982Z,16.28
2022-09-04T04:26:55.594Z,16.28
2022-09-04T04:29:26.788Z,16.30
2022-09-04T04:32:13.853Z,16.29
2022-09-04T04:34:44.296Z,16.31
2022-09-04T04:37:22.726Z,16.32
2022-09-04T04:39:55.327Z,16.33
2022-09-04T04:42:31.849Z,16.33
2022-09-04T04:45:29.429Z,16.29
2022-09-04T04:48:08.184Z,16.20
2022-09-04T04:50:37.432Z,16.18
2022-09-04T04:53:25.002Z,16.19
2022-09-04T04:56:15.260Z,16.15
2022-09-04T04:58:50.644Z,16.15
2022-09-04T05:01:19.945Z,16.12
2022-09-04T05:03:53.445Z,16.16
2022-09-04T05:06:25.049Z,16.16
2022-09-04T05:08:59.472Z,16.18
2022-09-04T05:11:35.737Z,16.22
2022-09-04T05:14:14.513Z,16.27
2022-09-04T05:16:51.085Z,16.26
2022-09-04T05:19:20.018Z,16.22
2022-09-04T05:21:53.289Z,16.22
2022-09-04T05:24:32.636Z,16.18
2022-09-04T05:27:01.883Z,16.25
2022-09-04T05:29:32.710Z,16.27
2022-09-04T05:32:02.021Z,16.32
2022-09-04T05:34:48.061Z,16.40
2022-09-04T05:37:26.703Z,16.44
2022-09-04T05:40:11.286Z,16.49
2022-09-04T05:42:45.463Z,16.70
2022-09-04T05:45:23.249Z,17.00
2022-09-04T05:48:13.031Z,17.30
2022-09-04T05:50:50.168Z,17.64
2022-09-04T05:53:35.177Z,17.72
2022-09-04T05:56:20.183Z,18.06
2022-09-04T05:59:00.746Z,18.42
2022-09-04T06:01:27.264Z,18.39
2022-09-04T06:03:56.500Z,18.59
2022-09-04T06:06:31.828Z,18.86
2022-09-04T06:09:25.688Z,19.12
2022-09-04T06:12:01.448Z,19.40
2022-09-04T06:14:54.419Z,19.33
2022-09-04T06:17:30.003Z,19.66
2022-09-04T06:20:04.573Z,19.69
2022-09-04T06:22:53.798Z,19.73
2022-09-04T06:25:34.080Z,19.49
2022-09-04T06:28:15.876Z,19.29
2022-09-04T06:31:00.998Z,19.28
2022-09-04T06:33:27.503Z,19.18
2022-09-04T06:35:53.961Z,19.15
2022-09-04T06:38:26.511Z,19.00
2022-09-04T06:41:18.896Z,19.08
2022-09-04T06:44:04.139Z,19.13
2022-09-04T06:46:39.300Z,19.12
2022-09-04T06:49:13.854Z,19.13
2022-09-04T06:51:46.703Z,19.15
2022-09-04T06:54:25.028Z,19.15
2022-09-04T06:57:07.410Z,19.15
2022-09-04T06:59:52.707Z,19.08
2022-09-04T07:02:22.115Z,19.17
2022-09-04T07:04:48.620Z,19.17
2022-09-04T07:07:24.065Z,19.27
2022-09-04T07:10:01.090Z,19.31
2022-09-04T07:12:36.878Z,19.33
2022-09-04T07:15:15.269Z,19.46
2022-09-04T07:17:49.360Z,19.50
2022-09-04T07:20:25.938Z,19.61
2022-09-04T07:22:59.317Z,19.77
2022-09-04T07:25:26.412Z,19.98
2022-09-04T07:28:02.225Z,19.95
2022-09-04T07:30:32.627Z,20.09
2022-09-04T07:33:07.392Z,20.26
2022-09-04T07:35:43.681Z,20.48
2022-09-04T07:38:36.184Z,20.72
2022-09-04T07:41:10.620Z,20.88
2022-09-04T07:43:50.200Z,20.90
2022-09-04T07:46:30.350Z,20.95
2022-09-04T07:49:09.646Z,21.04
2022-09-04T07:51:51.623Z,21.15
2022-09-04T07:54:44.248Z,21.15
2022-09-04T07:57:31.292Z,21.10
2022-09-04T08:00:00.551Z,21.19
2022-09-04T08:02:26.977Z,21.60
2022-09-04T08:05:32.841Z,21.67
2022-09-04T08:08:13.266Z,22.35
2022-09-04T08:10:48.735Z,23.06
2022-09-04T08:13:34.626Z,23.69
2022-09-04T08:16:08.567Z,23.66
2022-09-04T08:18:42.042Z,23.66
2022-09-04T08:21:15.499Z,24.06
2022-09-04T08:23:50.978Z,24.53
2022-09-04T08:26:20.430Z,24.60
2022-09-04T08:28:49.777Z,24.77
2022-09-04T08:31:18.271Z,24.77
2022-09-04T08:33:47.425Z,24.63
2022-09-04T08:36:19.767Z,24.09
2022-09-04T08:38:56.508Z,24.32
2022-09-04T08:41:41.894Z,24.99
2022-09-04T08:44:27.160Z,25.25
2022-09-04T08:46:56.637Z,25.23
2022-09-04T08:49:41.839Z,25.57
2022-09-04T08:52:31.504Z,25.39
2022-09-04T08:55:36.823Z,25.62
2022-09-04T08:58:03.303Z,26.24
2022-09-04T09:00:34.832Z,26.50
2022-09-04T09:03:34.438Z,26.43
2022-09-04T09:06:19.501Z,25.83
2022-09-04T09:08:46.019Z,26.07
2022-09-04T09:11:15.438Z,25.99
2022-09-04T09:14:01.979Z,25.84
2022-09-04T09:16:43.999Z,26.23
2022-09-04T09:19:33.872Z,26.64
2022-09-04T09:22:12.827Z,26.42
2022-09-04T09:24:51.597Z,26.49
2022-09-04T09:27:24.048Z,26.05
2022-09-04T09:29:50.582Z,25.73
2022-09-04T09:32:22.718Z,26.01
2022-09-04T09:35:10.090Z,26.31
2022-09-04T09:38:01.099Z,26.67
2022-09-04T09:40:33.308Z,26.27
2022-09-04T09:43:18.566Z,26.34
2022-09-04T09:45:45.157Z,26.10
2022-09-04T09:48:30.228Z,26.04
2022-09-04T09:51:05.509Z,25.74
2022-09-04T09:53:35.218Z,25.48
2022-09-04T09:56:07.436Z,25.64
2022-09-04T09:58:44.668Z,25.87
2022-09-04T10:01:19.800Z,25.65
2022-09-04T10:04:11.946Z,25.10
2022-09-04T10:06:44.835Z,25.14
2022-09-04T10:09:20.585Z,25.39
2022-09-04T10:11:50.203Z,25.40
2022-09-04T10:14:31.517Z,25.59
2022-09-04T10:17:10.590Z,26.06
2022-09-04T10:19:43.332Z,26.12
2022-09-04T10:22:12.467Z,26.53
2022-09-04T10:24:57.584Z,26.81
2022-09-04T10:27:44.572Z,27.07
2022-09-04T10:30:14.885Z,27.25
2022-09-04T10:32:41.504Z,27.38
2022-09-04T10:35:09.601Z,27.17
2022-09-04T10:37:54.519Z,27.06
2022-09-04T10:40:43.125Z,27.16
2022-09-04T10:43:11.043Z,26.67
2022-09-04T10:45:39.067Z,26.41
2022-09-04T10:48:28.332Z,25.84
2022-09-04T10:51:14.084Z,25.74
2022-09-04T10:53:41.552Z,25.70
2022-09-04T10:56:31.375Z,24.71
2022-09-04T10:59:04.208Z,25.21
2022-09-04T11:01:42.952Z,25.69
2022-09-04T11:04:14.063Z,25.90
2022-09-04T11:06:49.401Z,26.00
2022-09-04T11:09:30.697Z,26.15
2022-09-04T11:11:58.738Z,26.37
2022-09-04T11:14:43.555Z,26.44
2022-09-04T11:17:10.053Z,27.08
2022-09-04T11:19:36.549Z,27.68
2022-09-04T11:22:09.445Z,27.82
2022-09-04T11:24:55.869Z,27.83
2022-09-04T11:27:35.428Z,27.70
2022-09-04T11:30:03.785Z,27.83
2022-09-04T11:32:33.307Z,27.90
2022-09-04T11:35:36.365Z,27.75
2022-09-04T11:38:08.476Z,27.93
2022-09-04T11:40:56.511Z,28.10
2022-09-04T11:43:38.539Z,28.26
2022-09-04T11:46:11.753Z,28.43
2022-09-04T11:48:57.125Z,28.59
2022-09-04T11:51:23.592Z,28.90
2022-09-04T11:54:08.389Z,29.29
2022-09-04T11:56:53.595Z,29.71
2022-09-04T11:59:20.374Z,29.66
2022-09-04T12:02:05.601Z,29.76
2022-09-04T12:04:50.150Z,30.38
2022-09-04T12:07:22.909Z,30.81
2022-09-04T12:10:09.168Z,31.11
2022-09-04T12:12:38.825Z,30.79
2022-09-04T12:15:23.790Z,30.62
2022-09-04T12:18:09.471Z,30.35
2022-09-04T12:20:36.023Z,30.25
2022-09-04T12:23:02.794Z,30.13
2022-09-04T12:25:38.493Z,30.04
2022-09-04T12:28:24.171Z,29.26
2022-09-04T12:31:09.178Z,29.39
2022-09-04T12:33:38.601Z,29.06
2022-09-04T12:36:20.461Z,28.90
2022-09-04T12:38:47.347Z,29.64
2022-09-04T12:41:27.806Z,30.79
2022-09-04T12:44:06.799Z,31.50
2022-09-04T12:46:53.050Z,31.84
2022-09-04T12:49:35.627Z,31.51
2022-09-04T12:52:04.077Z,31.71
2022-09-04T12:54:43.978Z,31.70
2022-09-04T12:57:27.121Z,32.52
2022-09-04T13:00:13.587Z,32.72
2022-09-04T13:02:58.777Z,33.41
2022-09-04T13:05:28.247Z,33.80
2022-09-04T13:07:57.864Z,33.64
2022-09-04T13:10:33.084Z,32.83
2022-09-04T13:12:59.614Z,32.88
2022-09-04T13:15:43.159Z,33.29
2022-09-04T13:18:15.268Z,32.59
2022-09-04T13:20:53.281Z,31.92
2022-09-04T13:23:21.149Z,31.68
2022-09-04T13:25:58.645Z,31.62
2022-09-04T13:28:39.722Z,31.54
2022-09-04T13:31:15.274Z,31.35
2022-09-04T13:34:02.003Z,31.09
2022-09-04T13:36:31.291Z,31.32
2022-09-04T13:39:23.799Z,31.39
2022-09-04T13:42:13.184Z,32.10
2022-09-04T13:44:51.191Z,31.53
2022-09-04T13:47:32.474Z,30.93
2022-09-04T13:50:08.580Z,30.99
2022-09-04T13:52:43.913Z,31.06
2022-09-04T13:55:18.028Z,31.37
2022-09-04T13:57:54.083Z,31.47
2022-09-04T14:00:21.578Z,31.72
2022-09-04T14:02:55.936Z,32.29
2022-09-04T14:05:25.492Z,33.13
2022-09-04T14:08:02.400Z,33.50
2022-09-04T14:10:37.947Z,33.66
2022-09-04T14:13:09.903Z,33.11
2022-09-04T14:15:58.519Z,32.39
2022-09-04T14:18:25.212Z,31.89
2022-09-04T14:21:01.014Z,31.44
2022-09-04T14:23:37.017Z,30.90
2022-09-04T14:26:12.561Z,30.90
2022-09-04T14:28:48.442Z,30.82
2022-09-04T14:31:17.903Z,30.66
2022-09-04T14:33:56.715Z,30.38
2022-09-04T14:36:26.665Z,30.04
2022-09-04T14:38:56.828Z,30.02
2022-09-04T14:41:43.213Z,30.40
2022-09-04T14:44:12.880Z,30.90
2022-09-04T14:46:51.316Z,31.34
2022-09-04T14:49:21.470Z,31.62
2022-09-04T14:51:50.273Z,31.82
2022-09-04T14:54:25.121Z,31.83
2022-09-04T14:56:55.133Z,32.04
2022-09-04T14:59:36.875Z,32.39
2022-09-04T15:02:09.333Z,32.94
2022-09-04T15:04:39.870Z,32.17
2022-09-04T15:07:29.818Z,32.49
2022-09-04T15:10:16.695Z,33.01
2022-09-04T15:12:50.310Z,33.19
2022-09-04T15:15:32.378Z,33.23
2022-09-04T15:18:19.105Z,33.33
2022-09-04T15:21:04.111Z,33.31
2022-09-04T15:23:30.625Z,33.39
2022-09-04T15:26:07.286Z,32.83
2022-09-04T15:28:39.601Z,31.99
2022-09-04T15:31:15.607Z,31.31
2022-09-04T15:33:44.147Z,31.14
2022-09-04T15:36:15.285Z,31.02
2022-09-04T15:38:47.283Z,30.90
2022-09-04T15:41:21.808Z,31.03
2022-09-04T15:43:53.445Z,30.71
2022-09-04T15:46:26.372Z,30.94
2022-09-04T15:49:00.089Z,31.21
2022-09-04T15:51:38.682Z,31.24
2022-09-04T15:54:14.173Z,31.36
2022-09-04T15:56:48.146Z,31.32
2022-09-04T15:59:15.929Z,30.89
2022-09-04T16:01:51.980Z,30.93
2022-09-04T16:04:23.371Z,30.90
2022-09-04T16:06:54.254Z,30.15
2022-09-04T16:09:20.949Z,29.53
2022-09-04T16:11:56.026Z,29.36
2022-09-04T16:14:32.869Z,29.31
2022-09-04T16:17:02.267Z,29.33
2022-09-04T16:19:32.794Z,28.63
2022-09-04T16:21:59.399Z,27.94
2022-09-04T16:24:35.665Z,27.37
2022-09-04T16:27:05.974Z,27.05
2022-09-04T16:29:36.735Z,26.73
2022-09-04T16:32:05.988Z,26.36
2022-09-04T16:34:51.234Z,26.19
2022-09-04T16:37:22.216Z,26.05
2022-09-04T16:39:59.719Z,25.64
2022-09-04T16:42:38.456Z,25.07
2022-09-04T16:45:31.213Z,24.84
2022-09-04T16:48:33.832Z,24.75
2022-09-04T16:51:09.881Z,24.37
2022-09-04T16:53:58.926Z,24.16
2022-09-04T16:56:37.303Z,23.90
2022-09-04T16:59:17.495Z,23.73
2022-09-04T17:01:57.500Z,23.48
2022-09-04T17:04:28.191Z,23.29
2022-09-04T17:07:13.193Z,23.08
2022-09-04T17:10:18.287Z,22.84
2022-09-04T17:13:17.466Z,22.74
2022-09-04T17:15:55.686Z,22.65
2022-09-04T17:18:24.207Z,22.49
2022-09-04T17:26:19.874Z,22.41
2022-09-04T17:28:56.583Z,22.28
2022-09-04T17:29:13.817Z,22.19
2022-09-04T17:29:44.581Z,22.11
2022-09-04T17:33:40.943Z,22.05
2022-09-04T17:40:33.615Z,21.99
2022-09-04T17:40:53.112Z,21.89
2022-09-04T17:41:38.292Z,21.83
2022-09-04T17:44:04.809Z,21.77
2022-09-04T17:46:39.962Z,21.71
2022-09-04T17:49:34.459Z,21.68
2022-09-04T17:52:03.367Z,21.58
2022-09-04T17:54:32.140Z,21.55
2022-09-04T17:57:01.748Z,21.50
2022-09-04T17:59:40.519Z,21.46
2022-09-04T18:02:17.616Z,21.42
2022-09-04T18:04:50.861Z,21.35
2022-09-04T18:08:06.721Z,21.25
2022-09-04T18:10:26.203Z,21.24
2022-09-04T18:13:06.840Z,21.20
2022-09-04T18:15:39.440Z,21.16
2022-09-04T18:18:09.152Z,21.13
2022-09-04T18:20:39.454Z,21.06
2022-09-04T18:23:24.915Z,21.00
2022-09-04T18:25:54.830Z,20.95
2022-09-04T18:28:28.927Z,20.90
2022-09-04T18:37:08.540Z,20.78
2022-09-04T18:37:21.336Z,20.65
2022-09-04T18:37:21.501Z,20.73
2022-09-04T18:40:04.986Z,20.60
2022-09-04T18:50:28.539Z,20.46
2022-09-04T18:50:29.642Z,20.53
2022-09-04T18:50:34.150Z,20.35
2022-09-04T18:51:22.165Z,20.32
2022-09-04T18:53:58.504Z,20.25
2022-09-04T18:56:29.582Z,20.15
2022-09-04T18:59:05.366Z,20.10
2022-09-04T19:01:32.065Z,20.05
2022-09-04T19:04:19.676Z,20.02
2022-09-04T19:06:53.008Z,19.93
2022-09-04T19:09:28.977Z,19.90
2022-09-04T19:11:58.396Z,19.84
2022-09-04T19:14:30.329Z,19.79
2022-09-04T19:17:07.822Z,19.74
2022-09-04T19:19:54.563Z,19.69
2022-09-04T19:22:28.496Z,19.62
2022-09-04T19:24:58.571Z,19.58
2022-09-04T19:27:36.073Z,19.53
2022-09-04T19:30:34.735Z,19.47
2022-09-04T19:33:39.655Z,19.40
2022-09-04T19:36:19.467Z,19.32
2022-09-04T19:45:53.491Z,19.25
2022-09-04T19:46:03.890Z,19.15
2022-09-04T19:46:15.862Z,19.08
2022-09-04T19:47:31.831Z,18.99
2022-09-04T19:53:23.139Z,18.95
2022-09-04T19:53:37.964Z,18.90
2022-09-04T19:56:23.661Z,18.86
2022-09-04T19:58:53.999Z,18.81
2022-09-04T20:01:23.844Z,18.74
2022-09-04T20:03:54.760Z,18.71
2022-09-04T20:06:30.241Z,18.65
2022-09-04T20:09:02.860Z,18.63
2022-09-04T20:11:35.960Z,18.62
2022-09-04T20:14:14.437Z,18.60
2022-09-04T20:16:48.720Z,18.56
2022-09-04T20:19:34.439Z,18.55
2022-09-04T20:22:01.432Z,18.48
2022-09-04T20:24:40.640Z,18.45
2022-09-04T20:27:10.310Z,18.43
2022-09-04T20:29:52.449Z,18.43
2022-09-04T20:32:27.616Z,18.41
2022-09-04T20:35:12.971Z,18.41
2022-09-04T20:37:46.240Z,18.41
2022-09-04T20:40:19.364Z,18.39
2022-09-04T20:42:56.295Z,18.31
2022-09-04T20:48:22.592Z,18.29
2022-09-04T20:52:50.225Z,18.24
2022-09-04T20:52:53.859Z,18.23
2022-09-04T20:54:28.402Z,18.18
2022-09-04T21:01:12.559Z,18.15
2022-09-04T21:03:13.349Z,18.13
2022-09-04T21:03:20.360Z,18.08
2022-09-04T21:05:49.884Z,18.06
2022-09-04T21:08:30.104Z,18.07
2022-09-04T21:10:59.608Z,18.06
2022-09-04T21:13:30.212Z,18.07
2022-09-04T21:15:56.959Z,18.03
2022-09-04T21:18:23.965Z,18.01
2022-09-04T21:20:59.486Z,17.98
2022-09-04T21:23:47.776Z,17.96
2022-09-04T21:26:36.525Z,17.92
2022-09-04T21:29:29.488Z,17.91
2022-09-04T21:32:14.622Z,17.91
2022-09-04T21:34:43.383Z,17.90
2022-09-04T21:37:46.676Z,17.90
2022-09-04T21:40:21.322Z,17.85
2022-09-04T21:43:06.954Z,17.85
2022-09-04T21:45:36.236Z,17.82
2022-09-04T21:48:18.302Z,17.79
2022-09-04T21:51:01.710Z,17.78
2022-09-04T21:53:37.517Z,17.73
2022-09-04T21:59:04.645Z,17.72
2022-09-04T22:02:44.442Z,17.71
2022-09-04T22:02:49.399Z,17.72
2022-09-04T22:05:26.079Z,17.70
2022-09-04T22:12:36.856Z,17.70
2022-09-04T22:13:34.894Z,17.66
2022-09-04T22:14:07.562Z,17.63
2022-09-04T22:16:46.214Z,17.57
2022-09-04T22:19:26.812Z,17.54
2022-09-04T22:22:11.550Z,17.53
2022-09-04T22:25:00.268Z,17.51
2022-09-04T22:27:56.594Z,17.51
2022-09-04T22:30:23.025Z,17.47
2022-09-04T22:33:01.452Z,17.42
2022-09-04T22:36:02.709Z,17.40
2022-09-04T22:38:32.378Z,17.35
2022-09-04T22:41:01.684Z,17.32
2022-09-04T22:43:29.656Z,17.29
2022-09-04T22:46:30.304Z,17.27
2022-09-04T22:49:12.582Z,17.24
2022-09-04T22:51:58.384Z,17.20
2022-09-04T22:54:50.754Z,17.17
2022-09-04T22:57:34.379Z,17.14
2022-09-04T23:00:14.674Z,17.11
2022-09-04T23:03:07.204Z,17.06
2022-09-04T23:05:45.606Z,17.01
2022-09-04T23:13:42.240Z,16.95
2022-09-04T23:13:46.784Z,16.88
2022-09-04T23:14:39.734Z,16.83
2022-09-04T23:17:06.261Z,16.79
2022-09-04T23:26:19.721Z,16.76
2022-09-04T23:26:46.614Z,16.74
2022-09-04T23:26:48.656Z,16.68
2022-09-04T23:28:51.550Z,16.66
2022-09-04T23:31:37.772Z,16.67
2022-09-04T23:34:16.754Z,16.66
2022-09-04T23:36:52.273Z,16.65
2022-09-04T23:39:41.822Z,16.64
2022-09-04T23:42:14.490Z,16.64
2022-09-04T23:44:54.426Z,16.64
2022-09-04T23:47:47.639Z,16.64
2022-09-04T23:50:21.395Z,16.61
2022-09-04T23:53:00.160Z,16.60
2022-09-04T23:55:36.586Z,16.59
2022-09-04T23:58:52.787Z,16.59
